首页
METAR-TAF:

METAR-TAF

机场 :

拉瓜地亞機場

纽约 / 拉瓜地亞, 紐約州, 美国

纬度: 40-46-45N, 经度: 073-52-48W, 海拔: 6米

当前天气观测

该预报发布于27分钟前的11:07 UTC
风速13节,风向,有时为23节阵风
温度 11°C
湿度 87%
气压 1005 hPa
能見度: 8.0公里
阴天层高于500英尺
小雨, 轻雾

METAR: KLGA 241107Z 17013G23KT 5SM -RA BR OVC005 11/09 A2969 RMK AO2 P0000 T01060094

时间: 06:34 (11:34 UTC)

预报

该预报发布于3小时和4分钟前的08:30 UTC
预报有效从24日的 09点(UTC)到 25日的 12点(UTC)
风速13节,风向,有时为21节阵风
能見度: 10公里
散云层高于1000英尺
阴天层高于2000英尺
小阵雨
从 24日的 1200点(UTC)
风速16节,风向,有时为22节阵风
能見度: 4.8公里
阴天层高于700英尺
小雨, 轻雾
从 24日的 1500点(UTC)
风速22节,风向,有时为34节阵风
能見度: 3.2公里
阴天层高于500英尺
短暂存在
从 24日的 18点(UTC)到 24日的 20点(UTC)
能見度: 1.6公里
大雨, 轻雾
从 24日的 2000点(UTC)
风速18节,风向西转西北,有时为27节阵风
能見度: 8.0公里
散云层高于500英尺
多云层高于1000英尺
小雨
从 24日的 2200点(UTC)
风速16节,风向西转西北,有时为24节阵风
能見度: 10公里
散云层高于2000英尺
多云层高于4000英尺
从 25日的 0600点(UTC)
风速10节,风向西
能見度: 10公里
少量云层高于3500英尺

TAF: KLGA 240830Z 2409/2512 18013G21KT P6SM -SHRA SCT010 OVC020 WS020/20050KT FM241200 18016G22KT 3SM -RA BR OVC007 WS020/20055KT FM241500 18022G34KT 2SM RA OVC005 WS020/19065KT TEMPO 2418/2420 1SM +RA BR FM242000 29018G27KT 5SM -RA SCT005 BKN010 WS020/20045KT FM242200 29016G24KT P6SM SCT020 BKN040 FM250600 28010KT P6SM FEW035

超过4000个机场的气象观测和天气预报(METAR&TAF报告)。

可查询的气象台以黄色和红色小点在地图上表示。

将鼠标移到小点上方,可查看气象台名称。

然后点击查看天气观测和预报。

如需切换地图:点击带黑十字的绿色按钮放大地图;点击带横线的绿色按钮缩小地图;或者点击绿色箭头查看邻近地区的地图。


METAR-TAF: